sensor_id;sensor_type;location;lat;lon;timestamp;temperature;humidity
12901;DHT22;6518;50.930;5.344;2023-01-24T00:00:00;3.40;99.90
12901;DHT22;6518;50.930;5.344;2023-01-24T00:02:27;3.30;99.90
12901;DHT22;6518;50.930;5.344;2023-01-24T00:04:54;3.30;99.90
12901;DHT22;6518;50.930;5.344;2023-01-24T00:07:21;3.30;99.90
12901;DHT22;6518;50.930;5.344;2023-01-24T00:09:48;3.40;99.80
12901;DHT22;6518;50.930;5.344;2023-01-24T00:12:16;3.30;99.90
12901;DHT22;6518;50.930;5.344;2023-01-24T00:14:43;3.30;99.90
12901;DHT22;6518;50.930;5.344;2023-01-24T00:17:09;3.30;99.90
12901;DHT22;6518;50.930;5.344;2023-01-24T00:19:36;3.30;99.90
12901;DHT22;6518;50.930;5.344;2023-01-24T00:22:03;3.30;99.90
12901;DHT22;6518;50.930;5.344;2023-01-24T00:24:32;3.40;99.90
12901;DHT22;6518;50.930;5.344;2023-01-24T00:27:00;3.30;99.90
12901;DHT22;6518;50.930;5.344;2023-01-24T00:29:28;3.30;99.90
12901;DHT22;6518;50.930;5.344;2023-01-24T00:31:55;3.30;99.90
12901;DHT22;6518;50.930;5.344;2023-01-24T00:34:22;3.30;99.90
12901;DHT22;6518;50.930;5.344;2023-01-24T00:36:49;3.30;99.90
12901;DHT22;6518;50.930;5.344;2023-01-24T00:39:15;3.30;99.90
12901;DHT22;6518;50.930;5.344;2023-01-24T00:41:42;3.40;99.90
12901;DHT22;6518;50.930;5.344;2023-01-24T00:44:09;3.30;99.90
12901;DHT22;6518;50.930;5.344;2023-01-24T00:46:38;3.30;99.90
12901;DHT22;6518;50.930;5.344;2023-01-24T00:49:05;3.30;99.90
12901;DHT22;6518;50.930;5.344;2023-01-24T00:51:31;3.30;99.90
12901;DHT22;6518;50.930;5.344;2023-01-24T00:53:58;3.30;99.90
12901;DHT22;6518;50.930;5.344;2023-01-24T00:56:25;3.30;99.90
12901;DHT22;6518;50.930;5.344;2023-01-24T00:58:52;3.30;99.90
12901;DHT22;6518;50.930;5.344;2023-01-24T01:01:19;3.30;99.90
12901;DHT22;6518;50.930;5.344;2023-01-24T01:03:48;3.30;99.90
12901;DHT22;6518;50.930;5.344;2023-01-24T01:06:15;3.30;99.90
12901;DHT22;6518;50.930;5.344;2023-01-24T01:08:42;3.30;99.90
12901;DHT22;6518;50.930;5.344;2023-01-24T01:11:09;3.30;99.90
12901;DHT22;6518;50.930;5.344;2023-01-24T01:13:36;3.30;99.90
12901;DHT22;6518;50.930;5.344;2023-01-24T01:16:04;3.30;99.90
12901;DHT22;6518;50.930;5.344;2023-01-24T01:18:32;3.30;99.90
12901;DHT22;6518;50.930;5.344;2023-01-24T01:21:01;3.30;99.90
12901;DHT22;6518;50.930;5.344;2023-01-24T01:23:28;3.30;99.90
12901;DHT22;6518;50.930;5.344;2023-01-24T01:25:59;3.30;99.90
12901;DHT22;6518;50.930;5.344;2023-01-24T01:28:26;3.30;99.90
12901;DHT22;6518;50.930;5.344;2023-01-24T01:30:53;3.30;99.90
12901;DHT22;6518;50.930;5.344;2023-01-24T01:33:20;3.40;99.90
12901;DHT22;6518;50.930;5.344;2023-01-24T01:35:47;3.30;99.90
12901;DHT22;6518;50.930;5.344;2023-01-24T01:38:15;3.30;99.90
12901;DHT22;6518;50.930;5.344;2023-01-24T01:40:43;3.30;99.90
12901;DHT22;6518;50.930;5.344;2023-01-24T01:43:13;3.30;99.90
12901;DHT22;6518;50.930;5.344;2023-01-24T01:45:43;3.30;99.90
12901;DHT22;6518;50.930;5.344;2023-01-24T01:48:18;3.30;99.90
12901;DHT22;6518;50.930;5.344;2023-01-24T01:50:50;3.30;99.90
12901;DHT22;6518;50.930;5.344;2023-01-24T01:53:20;3.30;99.90
12901;DHT22;6518;50.930;5.344;2023-01-24T01:55:51;3.30;99.90
12901;DHT22;6518;50.930;5.344;2023-01-24T01:58:20;3.30;99.90
12901;DHT22;6518;50.930;5.344;2023-01-24T02:00:48;3.30;99.90
12901;DHT22;6518;50.930;5.344;2023-01-24T02:03:19;3.30;99.90
12901;DHT22;6518;50.930;5.344;2023-01-24T02:06:30;3.30;99.90
12901;DHT22;6518;50.930;5.344;2023-01-24T02:09:01;3.30;99.90
12901;DHT22;6518;50.930;5.344;2023-01-24T02:11:29;3.40;99.90
12901;DHT22;6518;50.930;5.344;2023-01-24T02:14:07;3.40;99.90
12901;DHT22;6518;50.930;5.344;2023-01-24T02:16:52;3.30;99.90
12901;DHT22;6518;50.930;5.344;2023-01-24T02:19:43;3.40;99.90
12901;DHT22;6518;50.930;5.344;2023-01-24T02:22:16;3.40;99.90
12901;DHT22;6518;50.930;5.344;2023-01-24T02:24:52;3.40;99.90
12901;DHT22;6518;50.930;5.344;2023-01-24T02:27:23;3.40;99.90
12901;DHT22;6518;50.930;5.344;2023-01-24T02:29:50;3.40;99.90
12901;DHT22;6518;50.930;5.344;2023-01-24T02:32:17;3.40;99.90
12901;DHT22;6518;50.930;5.344;2023-01-24T02:34:44;3.40;99.90
12901;DHT22;6518;50.930;5.344;2023-01-24T02:37:13;3.40;99.90
12901;DHT22;6518;50.930;5.344;2023-01-24T02:39:45;3.40;99.90
12901;DHT22;6518;50.930;5.344;2023-01-24T02:42:16;3.40;99.90
12901;DHT22;6518;50.930;5.344;2023-01-24T02:44:52;3.40;99.90
12901;DHT22;6518;50.930;5.344;2023-01-24T02:47:19;3.40;99.90
12901;DHT22;6518;50.930;5.344;2023-01-24T02:49:46;3.40;99.90
12901;DHT22;6518;50.930;5.344;2023-01-24T02:52:12;3.40;99.90
12901;DHT22;6518;50.930;5.344;2023-01-24T02:54:56;3.40;99.90
12901;DHT22;6518;50.930;5.344;2023-01-24T02:57:23;3.40;99.90
12901;DHT22;6518;50.930;5.344;2023-01-24T03:00:10;3.40;99.90
12901;DHT22;6518;50.930;5.344;2023-01-24T03:02:37;3.40;99.90
12901;DHT22;6518;50.930;5.344;2023-01-24T03:05:05;3.40;99.90
12901;DHT22;6518;50.930;5.344;2023-01-24T03:07:32;3.40;99.90
12901;DHT22;6518;50.930;5.344;2023-01-24T03:10:08;3.40;99.90
12901;DHT22;6518;50.930;5.344;2023-01-24T03:12:37;3.40;99.90
12901;DHT22;6518;50.930;5.344;2023-01-24T03:15:23;3.40;99.90
12901;DHT22;6518;50.930;5.344;2023-01-24T03:18:07;3.30;99.90
12901;DHT22;6518;50.930;5.344;2023-01-24T03:20:52;3.30;99.90
12901;DHT22;6518;50.930;5.344;2023-01-24T03:23:36;3.30;99.90
12901;DHT22;6518;50.930;5.344;2023-01-24T03:26:20;3.30;99.90
12901;DHT22;6518;50.930;5.344;2023-01-24T03:29:05;3.30;99.90
12901;DHT22;6518;50.930;5.344;2023-01-24T03:31:51;3.30;99.90
12901;DHT22;6518;50.930;5.344;2023-01-24T03:34:35;3.30;99.90
12901;DHT22;6518;50.930;5.344;2023-01-24T03:37:11;3.40;99.90
12901;DHT22;6518;50.930;5.344;2023-01-24T03:39:38;3.30;99.90
12901;DHT22;6518;50.930;5.344;2023-01-24T03:42:24;3.30;99.90
12901;DHT22;6518;50.930;5.344;2023-01-24T03:44:52;3.30;99.90
12901;DHT22;6518;50.930;5.344;2023-01-24T03:47:20;3.40;99.90
12901;DHT22;6518;50.930;5.344;2023-01-24T03:49:47;3.30;99.90
12901;DHT22;6518;50.930;5.344;2023-01-24T03:52:31;3.30;99.90
12901;DHT22;6518;50.930;5.344;2023-01-24T03:54:59;3.30;99.90
12901;DHT22;6518;50.930;5.344;2023-01-24T03:57:27;3.30;99.90
12901;DHT22;6518;50.930;5.344;2023-01-24T03:59:54;3.30;99.90
12901;DHT22;6518;50.930;5.344;2023-01-24T04:02:23;3.30;99.90
12901;DHT22;6518;50.930;5.344;2023-01-24T04:04:50;3.30;99.90
12901;DHT22;6518;50.930;5.344;2023-01-24T04:07:34;3.30;99.90
12901;DHT22;6518;50.930;5.344;2023-01-24T04:10:01;3.30;99.90
12901;DHT22;6518;50.930;5.344;2023-01-24T04:12:28;3.40;99.90
12901;DHT22;6518;50.930;5.344;2023-01-24T04:14:54;3.40;99.90
12901;DHT22;6518;50.930;5.344;2023-01-24T04:17:23;3.30;99.90
12901;DHT22;6518;50.930;5.344;2023-01-24T04:19:50;3.30;99.90
12901;DHT22;6518;50.930;5.344;2023-01-24T04:22:17;3.40;99.90
12901;DHT22;6518;50.930;5.344;2023-01-24T04:24:44;3.30;99.90
12901;DHT22;6518;50.930;5.344;2023-01-24T04:27:11;3.30;99.90
12901;DHT22;6518;50.930;5.344;2023-01-24T04:29:38;3.30;99.90
12901;DHT22;6518;50.930;5.344;2023-01-24T04:32:05;3.30;99.90
12901;DHT22;6518;50.930;5.344;2023-01-24T04:34:34;3.30;99.90
12901;DHT22;6518;50.930;5.344;2023-01-24T04:37:01;3.30;99.90
12901;DHT22;6518;50.930;5.344;2023-01-24T04:39:27;3.30;99.90
12901;DHT22;6518;50.930;5.344;2023-01-24T04:41:54;3.30;99.90
12901;DHT22;6518;50.930;5.344;2023-01-24T04:44:21;3.30;99.90
12901;DHT22;6518;50.930;5.344;2023-01-24T04:46:48;3.20;99.90
12901;DHT22;6518;50.930;5.344;2023-01-24T04:49:14;3.30;99.90
12901;DHT22;6518;50.930;5.344;2023-01-24T04:51:46;3.30;99.90
12901;DHT22;6518;50.930;5.344;2023-01-24T04:54:13;3.30;99.90
12901;DHT22;6518;50.930;5.344;2023-01-24T04:56:39;3.30;99.90
12901;DHT22;6518;50.930;5.344;2023-01-24T04:59:06;3.30;99.90
12901;DHT22;6518;50.930;5.344;2023-01-24T05:01:33;3.30;99.90
12901;DHT22;6518;50.930;5.344;2023-01-24T05:04:00;3.20;99.90
12901;DHT22;6518;50.930;5.344;2023-01-24T05:06:28;3.20;99.90
12901;DHT22;6518;50.930;5.344;2023-01-24T05:08:56;3.20;99.90
12901;DHT22;6518;50.930;5.344;2023-01-24T05:11:23;3.20;99.90
12901;DHT22;6518;50.930;5.344;2023-01-24T05:13:50;3.20;99.90
12901;DHT22;6518;50.930;5.344;2023-01-24T05:16:18;3.20;99.90
12901;DHT22;6518;50.930;5.344;2023-01-24T05:18:44;3.20;99.30
12901;DHT22;6518;50.930;5.344;2023-01-24T05:21:13;3.20;98.30
12901;DHT22;6518;50.930;5.344;2023-01-24T05:23:40;3.20;98.00
12901;DHT22;6518;50.930;5.344;2023-01-24T05:26:09;3.10;98.60
12901;DHT22;6518;50.930;5.344;2023-01-24T05:28:36;3.10;98.20
12901;DHT22;6518;50.930;5.344;2023-01-24T05:31:05;3.10;98.20
12901;DHT22;6518;50.930;5.344;2023-01-24T05:33:34;3.10;98.60
12901;DHT22;6518;50.930;5.344;2023-01-24T05:36:02;3.10;98.20
12901;DHT22;6518;50.930;5.344;2023-01-24T05:38:29;3.10;98.20
12901;DHT22;6518;50.930;5.344;2023-01-24T05:40:58;3.10;98.10
12901;DHT22;6518;50.930;5.344;2023-01-24T05:43:27;3.10;97.90
12901;DHT22;6518;50.930;5.344;2023-01-24T05:45:57;3.10;98.00
12901;DHT22;6518;50.930;5.344;2023-01-24T05:48:24;3.10;98.00
12901;DHT22;6518;50.930;5.344;2023-01-24T05:50:56;3.10;97.70
12901;DHT22;6518;50.930;5.344;2023-01-24T05:53:23;3.10;98.00
12901;DHT22;6518;50.930;5.344;2023-01-24T05:55:54;3.80;98.40
12901;DHT22;6518;50.930;5.344;2023-01-24T05:58:21;3.10;98.30
12901;DHT22;6518;50.930;5.344;2023-01-24T06:00:49;3.10;98.40
12901;DHT22;6518;50.930;5.344;2023-01-24T06:03:16;3.10;98.50
12901;DHT22;6518;50.930;5.344;2023-01-24T06:05:45;3.10;98.70
12901;DHT22;6518;50.930;5.344;2023-01-24T06:08:12;3.00;98.70
12901;DHT22;6518;50.930;5.344;2023-01-24T06:10:39;3.00;98.70
12901;DHT22;6518;50.930;5.344;2023-01-24T06:13:05;3.10;99.00
12901;DHT22;6518;50.930;5.344;2023-01-24T06:15:32;3.10;98.90
12901;DHT22;6518;50.930;5.344;2023-01-24T06:18:01;3.10;99.10
12901;DHT22;6518;50.930;5.344;2023-01-24T06:20:28;3.10;99.20
12901;DHT22;6518;50.930;5.344;2023-01-24T06:22:59;3.10;99.00
12901;DHT22;6518;50.930;5.344;2023-01-24T06:25:28;3.10;99.20
12901;DHT22;6518;50.930;5.344;2023-01-24T06:27:55;3.10;99.50
12901;DHT22;6518;50.930;5.344;2023-01-24T06:30:23;3.10;99.90
12901;DHT22;6518;50.930;5.344;2023-01-24T06:33:04;3.10;99.60
12901;DHT22;6518;50.930;5.344;2023-01-24T06:35:39;3.10;99.70
12901;DHT22;6518;50.930;5.344;2023-01-24T06:38:17;3.10;99.10
12901;DHT22;6518;50.930;5.344;2023-01-24T06:40:45;3.00;99.20
12901;DHT22;6518;50.930;5.344;2023-01-24T06:43:12;3.10;99.10
12901;DHT22;6518;50.930;5.344;2023-01-24T06:45:39;3.10;99.10
12901;DHT22;6518;50.930;5.344;2023-01-24T06:48:07;3.10;99.30
12901;DHT22;6518;50.930;5.344;2023-01-24T06:50:34;3.10;99.50
12901;DHT22;6518;50.930;5.344;2023-01-24T06:53:00;3.10;99.30
12901;DHT22;6518;50.930;5.344;2023-01-24T06:55:27;3.10;99.00
12901;DHT22;6518;50.930;5.344;2023-01-24T06:57:55;3.10;99.10
12901;DHT22;6518;50.930;5.344;2023-01-24T07:00:22;3.10;98.90
12901;DHT22;6518;50.930;5.344;2023-01-24T07:02:57;3.10;99.00
12901;DHT22;6518;50.930;5.344;2023-01-24T07:05:25;3.00;98.60
12901;DHT22;6518;50.930;5.344;2023-01-24T07:07:52;3.10;98.70
12901;DHT22;6518;50.930;5.344;2023-01-24T07:10:19;3.10;98.50
12901;DHT22;6518;50.930;5.344;2023-01-24T07:12:46;3.10;98.40
12901;DHT22;6518;50.930;5.344;2023-01-24T07:15:13;3.10;98.30
12901;DHT22;6518;50.930;5.344;2023-01-24T07:17:40;3.00;98.20
12901;DHT22;6518;50.930;5.344;2023-01-24T07:20:08;3.00;98.50
12901;DHT22;6518;50.930;5.344;2023-01-24T07:22:40;3.10;98.40
12901;DHT22;6518;50.930;5.344;2023-01-24T07:25:12;3.10;98.00
12901;DHT22;6518;50.930;5.344;2023-01-24T07:27:40;3.10;97.50
12901;DHT22;6518;50.930;5.344;2023-01-24T07:30:08;3.10;97.60
12901;DHT22;6518;50.930;5.344;2023-01-24T07:32:35;3.10;97.60
12901;DHT22;6518;50.930;5.344;2023-01-24T07:35:03;3.00;97.50
12901;DHT22;6518;50.930;5.344;2023-01-24T07:37:30;3.10;97.50
12901;DHT22;6518;50.930;5.344;2023-01-24T07:39:58;3.10;97.30
12901;DHT22;6518;50.930;5.344;2023-01-24T07:42:25;3.10;96.90
12901;DHT22;6518;50.930;5.344;2023-01-24T07:44:52;3.10;96.10
12901;DHT22;6518;50.930;5.344;2023-01-24T07:47:19;3.10;95.70
12901;DHT22;6518;50.930;5.344;2023-01-24T07:49:46;3.10;95.40
12901;DHT22;6518;50.930;5.344;2023-01-24T07:52:13;3.10;95.10
12901;DHT22;6518;50.930;5.344;2023-01-24T07:54:39;3.10;95.20
12901;DHT22;6518;50.930;5.344;2023-01-24T07:57:08;3.00;94.90
12901;DHT22;6518;50.930;5.344;2023-01-24T07:59:34;3.00;94.40
12901;DHT22;6518;50.930;5.344;2023-01-24T08:02:01;3.00;94.30
12901;DHT22;6518;50.930;5.344;2023-01-24T08:04:28;3.00;94.40
12901;DHT22;6518;50.930;5.344;2023-01-24T08:06:55;3.00;94.20
12901;DHT22;6518;50.930;5.344;2023-01-24T08:09:39;3.00;93.90
12901;DHT22;6518;50.930;5.344;2023-01-24T08:12:07;3.00;93.70
12901;DHT22;6518;50.930;5.344;2023-01-24T08:14:34;3.00;93.70
12901;DHT22;6518;50.930;5.344;2023-01-24T08:17:01;3.00;93.40
12901;DHT22;6518;50.930;5.344;2023-01-24T08:19:27;3.00;93.70
12901;DHT22;6518;50.930;5.344;2023-01-24T08:21:54;3.00;93.80
12901;DHT22;6518;50.930;5.344;2023-01-24T08:24:21;3.00;93.80
12901;DHT22;6518;50.930;5.344;2023-01-24T08:26:48;3.10;93.50
12901;DHT22;6518;50.930;5.344;2023-01-24T08:29:17;3.10;93.20
12901;DHT22;6518;50.930;5.344;2023-01-24T08:31:44;3.00;93.20
12901;DHT22;6518;50.930;5.344;2023-01-24T08:34:14;3.10;92.70
12901;DHT22;6518;50.930;5.344;2023-01-24T08:36:41;3.00;92.40
12901;DHT22;6518;50.930;5.344;2023-01-24T08:39:07;3.00;92.70
12901;DHT22;6518;50.930;5.344;2023-01-24T08:41:34;3.00;92.80
12901;DHT22;6518;50.930;5.344;2023-01-24T08:44:01;3.00;92.80
12901;DHT22;6518;50.930;5.344;2023-01-24T08:46:30;3.10;92.60
12901;DHT22;6518;50.930;5.344;2023-01-24T08:48:57;3.10;92.50
12901;DHT22;6518;50.930;5.344;2023-01-24T08:51:23;3.10;92.40
12901;DHT22;6518;50.930;5.344;2023-01-24T08:53:50;3.10;92.10
12901;DHT22;6518;50.930;5.344;2023-01-24T08:56:17;3.10;92.10
12901;DHT22;6518;50.930;5.344;2023-01-24T08:58:44;3.10;92.10
12901;DHT22;6518;50.930;5.344;2023-01-24T09:01:11;3.10;92.40
12901;DHT22;6518;50.930;5.344;2023-01-24T09:03:39;3.10;92.20
12901;DHT22;6518;50.930;5.344;2023-01-24T09:06:06;3.10;92.00
12901;DHT22;6518;50.930;5.344;2023-01-24T09:08:33;3.10;91.90
12901;DHT22;6518;50.930;5.344;2023-01-24T09:11:00;3.10;92.10
12901;DHT22;6518;50.930;5.344;2023-01-24T09:13:28;3.10;91.90
12901;DHT22;6518;50.930;5.344;2023-01-24T09:15:57;3.10;91.80
12901;DHT22;6518;50.930;5.344;2023-01-24T09:18:24;3.10;92.10
12901;DHT22;6518;50.930;5.344;2023-01-24T09:20:52;3.20;91.90
12901;DHT22;6518;50.930;5.344;2023-01-24T09:23:19;3.20;91.80
12901;DHT22;6518;50.930;5.344;2023-01-24T09:25:50;3.20;91.70
12901;DHT22;6518;50.930;5.344;2023-01-24T09:28:17;3.20;91.80
12901;DHT22;6518;50.930;5.344;2023-01-24T09:30:47;3.20;91.80
12901;DHT22;6518;50.930;5.344;2023-01-24T09:33:14;3.20;91.50
12901;DHT22;6518;50.930;5.344;2023-01-24T09:35:50;3.20;91.60
12901;DHT22;6518;50.930;5.344;2023-01-24T09:38:18;3.20;91.60
12901;DHT22;6518;50.930;5.344;2023-01-24T09:40:53;3.30;91.50
12901;DHT22;6518;50.930;5.344;2023-01-24T09:43:31;3.30;91.50
12901;DHT22;6518;50.930;5.344;2023-01-24T09:46:11;3.30;91.50
12901;DHT22;6518;50.930;5.344;2023-01-24T09:48:40;3.20;91.70
12901;DHT22;6518;50.930;5.344;2023-01-24T09:51:14;3.30;91.80
12901;DHT22;6518;50.930;5.344;2023-01-24T09:53:45;3.40;91.80
12901;DHT22;6518;50.930;5.344;2023-01-24T09:56:20;3.40;91.60
12901;DHT22;6518;50.930;5.344;2023-01-24T09:58:59;3.40;91.60
12901;DHT22;6518;50.930;5.344;2023-01-24T10:01:35;3.40;91.40
12901;DHT22;6518;50.930;5.344;2023-01-24T10:04:04;3.50;91.30
12901;DHT22;6518;50.930;5.344;2023-01-24T10:06:32;3.50;91.20
12901;DHT22;6518;50.930;5.344;2023-01-24T10:09:06;4.00;91.00
12901;DHT22;6518;50.930;5.344;2023-01-24T10:11:44;3.50;90.90
12901;DHT22;6518;50.930;5.344;2023-01-24T10:14:30;3.50;90.80
12901;DHT22;6518;50.930;5.344;2023-01-24T10:17:23;3.50;91.00
12901;DHT22;6518;50.930;5.344;2023-01-24T10:20:00;3.50;90.80
12901;DHT22;6518;50.930;5.344;2023-01-24T10:22:52;3.50;90.80
12901;DHT22;6518;50.930;5.344;2023-01-24T10:25:26;3.50;90.60
12901;DHT22;6518;50.930;5.344;2023-01-24T10:27:56;3.50;90.60
12901;DHT22;6518;50.930;5.344;2023-01-24T10:30:29;3.60;90.40
12901;DHT22;6518;50.930;5.344;2023-01-24T10:33:00;3.60;90.20
12901;DHT22;6518;50.930;5.344;2023-01-24T10:35:32;3.50;90.10
12901;DHT22;6518;50.930;5.344;2023-01-24T10:38:05;3.50;90.20
12901;DHT22;6518;50.930;5.344;2023-01-24T10:40:48;3.50;90.60
12901;DHT22;6518;50.930;5.344;2023-01-24T10:43:16;3.60;90.60
12901;DHT22;6518;50.930;5.344;2023-01-24T10:45:49;3.60;90.50
12901;DHT22;6518;50.930;5.344;2023-01-24T10:48:27;3.70;90.50
12901;DHT22;6518;50.930;5.344;2023-01-24T10:51:10;3.70;90.50
12901;DHT22;6518;50.930;5.344;2023-01-24T10:53:37;3.70;90.30
12901;DHT22;6518;50.930;5.344;2023-01-24T10:56:06;3.70;90.50
12901;DHT22;6518;50.930;5.344;2023-01-24T10:58:36;3.80;90.40
12901;DHT22;6518;50.930;5.344;2023-01-24T11:01:16;3.80;90.40
12901;DHT22;6518;50.930;5.344;2023-01-24T11:03:45;3.80;90.50
12901;DHT22;6518;50.930;5.344;2023-01-24T11:06:24;3.80;90.30
12901;DHT22;6518;50.930;5.344;2023-01-24T11:08:55;3.60;90.10
12901;DHT22;6518;50.930;5.344;2023-01-24T11:11:26;3.80;90.10
12901;DHT22;6518;50.930;5.344;2023-01-24T11:13:55;3.80;90.00
12901;DHT22;6518;50.930;5.344;2023-01-24T11:16:26;3.80;90.10
12901;DHT22;6518;50.930;5.344;2023-01-24T11:18:56;3.80;90.20
12901;DHT22;6518;50.930;5.344;2023-01-24T11:21:27;3.80;90.00
12901;DHT22;6518;50.930;5.344;2023-01-24T11:24:07;3.80;89.40
12901;DHT22;6518;50.930;5.344;2023-01-24T11:26:38;3.80;89.10
12901;DHT22;6518;50.930;5.344;2023-01-24T11:29:17;3.80;89.10
12901;DHT22;6518;50.930;5.344;2023-01-24T11:31:46;3.80;89.00
12901;DHT22;6518;50.930;5.344;2023-01-24T11:34:49;3.80;88.90
12901;DHT22;6518;50.930;5.344;2023-01-24T11:37:43;3.80;88.60
12901;DHT22;6518;50.930;5.344;2023-01-24T11:40:22;3.80;88.40
12901;DHT22;6518;50.930;5.344;2023-01-24T11:43:02;3.90;88.20
12901;DHT22;6518;50.930;5.344;2023-01-24T11:45:47;3.90;88.60
12901;DHT22;6518;50.930;5.344;2023-01-24T11:48:20;3.90;88.20
12901;DHT22;6518;50.930;5.344;2023-01-24T11:50:56;3.80;88.40
12901;DHT22;6518;50.930;5.344;2023-01-24T11:53:47;3.90;88.30
12901;DHT22;6518;50.930;5.344;2023-01-24T11:56:22;3.90;88.60
12901;DHT22;6518;50.930;5.344;2023-01-24T11:59:11;3.90;88.60
12901;DHT22;6518;50.930;5.344;2023-01-24T12:01:48;3.90;88.80
12901;DHT22;6518;50.930;5.344;2023-01-24T12:07:13;3.90;88.50
12901;DHT22;6518;50.930;5.344;2023-01-24T12:09:44;3.90;88.60
12901;DHT22;6518;50.930;5.344;2023-01-24T12:12:18;4.00;88.80
12901;DHT22;6518;50.930;5.344;2023-01-24T12:15:04;4.00;88.90
12901;DHT22;6518;50.930;5.344;2023-01-24T12:17:49;4.00;88.60
12901;DHT22;6518;50.930;5.344;2023-01-24T12:20:42;4.00;88.60
12901;DHT22;6518;50.930;5.344;2023-01-24T12:23:18;4.00;88.40
12901;DHT22;6518;50.930;5.344;2023-01-24T12:25:49;4.00;88.10
12901;DHT22;6518;50.930;5.344;2023-01-24T12:28:25;4.00;88.40
12901;DHT22;6518;50.930;5.344;2023-01-24T12:30:57;4.00;88.40
12901;DHT22;6518;50.930;5.344;2023-01-24T12:33:29;4.10;88.20
12901;DHT22;6518;50.930;5.344;2023-01-24T12:35:59;4.10;88.10
12901;DHT22;6518;50.930;5.344;2023-01-24T12:38:31;4.00;87.50
12901;DHT22;6518;50.930;5.344;2023-01-24T12:41:09;4.10;87.90
12901;DHT22;6518;50.930;5.344;2023-01-24T12:43:47;4.00;87.40
12901;DHT22;6518;50.930;5.344;2023-01-24T12:46:22;4.00;87.50
12901;DHT22;6518;50.930;5.344;2023-01-24T12:48:55;4.00;87.30
12901;DHT22;6518;50.930;5.344;2023-01-24T12:51:27;4.00;87.50
12901;DHT22;6518;50.930;5.344;2023-01-24T12:53:59;4.00;87.80
12901;DHT22;6518;50.930;5.344;2023-01-24T12:56:32;4.00;87.50
12901;DHT22;6518;50.930;5.344;2023-01-24T12:59:02;4.00;87.80
12901;DHT22;6518;50.930;5.344;2023-01-24T13:04:27;4.10;88.20
12901;DHT22;6518;50.930;5.344;2023-01-24T13:07:06;4.10;87.80
12901;DHT22;6518;50.930;5.344;2023-01-24T13:09:39;4.10;87.70
12901;DHT22;6518;50.930;5.344;2023-01-24T13:12:12;4.10;87.90
12901;DHT22;6518;50.930;5.344;2023-01-24T13:14:42;4.20;87.60
12901;DHT22;6518;50.930;5.344;2023-01-24T13:17:34;4.10;87.60
12901;DHT22;6518;50.930;5.344;2023-01-24T13:20:13;4.10;87.80
12901;DHT22;6518;50.930;5.344;2023-01-24T13:22:50;4.10;87.70
12901;DHT22;6518;50.930;5.344;2023-01-24T13:25:46;4.20;87.60
12901;DHT22;6518;50.930;5.344;2023-01-24T13:28:24;4.20;87.40
12901;DHT22;6518;50.930;5.344;2023-01-24T13:31:05;4.20;87.50
12901;DHT22;6518;50.930;5.344;2023-01-24T13:33:38;4.20;87.70
12901;DHT22;6518;50.930;5.344;2023-01-24T13:36:15;4.20;87.60
12901;DHT22;6518;50.930;5.344;2023-01-24T13:38:44;4.20;87.90
12901;DHT22;6518;50.930;5.344;2023-01-24T13:41:15;4.20;87.60
12901;DHT22;6518;50.930;5.344;2023-01-24T13:44:03;4.20;87.30
12901;DHT22;6518;50.930;5.344;2023-01-24T13:49:37;4.20;87.10
12901;DHT22;6518;50.930;5.344;2023-01-24T13:52:41;4.10;87.70
12901;DHT22;6518;50.930;5.344;2023-01-24T13:58:27;4.20;86.90
12901;DHT22;6518;50.930;5.344;2023-01-24T14:00:57;4.20;87.00
12901;DHT22;6518;50.930;5.344;2023-01-24T14:03:27;4.10;87.20
12901;DHT22;6518;50.930;5.344;2023-01-24T14:06:06;4.10;87.20
12901;DHT22;6518;50.930;5.344;2023-01-24T14:08:41;4.10;87.60
12901;DHT22;6518;50.930;5.344;2023-01-24T14:11:20;4.10;87.20
12901;DHT22;6518;50.930;5.344;2023-01-24T14:13:58;4.10;87.00
12901;DHT22;6518;50.930;5.344;2023-01-24T14:17:00;4.10;87.10
12901;DHT22;6518;50.930;5.344;2023-01-24T14:19:31;4.10;86.90
12901;DHT22;6518;50.930;5.344;2023-01-24T14:22:02;4.00;86.90
12901;DHT22;6518;50.930;5.344;2023-01-24T14:24:33;4.00;87.10
12901;DHT22;6518;50.930;5.344;2023-01-24T14:27:15;4.00;87.30
12901;DHT22;6518;50.930;5.344;2023-01-24T14:29:45;4.00;87.40
12901;DHT22;6518;50.930;5.344;2023-01-24T14:32:20;4.00;87.60
12901;DHT22;6518;50.930;5.344;2023-01-24T14:34:53;3.90;87.80
12901;DHT22;6518;50.930;5.344;2023-01-24T14:37:25;3.90;88.00
12901;DHT22;6518;50.930;5.344;2023-01-24T14:40:09;3.90;88.20
12901;DHT22;6518;50.930;5.344;2023-01-24T14:42:36;3.90;88.50
12901;DHT22;6518;50.930;5.344;2023-01-24T14:45:04;3.90;88.10
12901;DHT22;6518;50.930;5.344;2023-01-24T14:47:38;3.90;88.30
12901;DHT22;6518;50.930;5.344;2023-01-24T14:50:20;3.90;88.70
12901;DHT22;6518;50.930;5.344;2023-01-24T14:52:47;3.90;89.00
12901;DHT22;6518;50.930;5.344;2023-01-24T14:55:32;3.90;88.90
12901;DHT22;6518;50.930;5.344;2023-01-24T14:58:13;3.90;89.10
12901;DHT22;6518;50.930;5.344;2023-01-24T15:00:40;3.90;89.20
12901;DHT22;6518;50.930;5.344;2023-01-24T15:03:15;3.90;88.90
12901;DHT22;6518;50.930;5.344;2023-01-24T15:05:50;3.90;88.70
12901;DHT22;6518;50.930;5.344;2023-01-24T15:08:18;3.90;88.70
12901;DHT22;6518;50.930;5.344;2023-01-24T15:10:53;3.90;88.50
12901;DHT22;6518;50.930;5.344;2023-01-24T15:13:26;3.90;89.00
12901;DHT22;6518;50.930;5.344;2023-01-24T15:15:55;3.80;89.50
12901;DHT22;6518;50.930;5.344;2023-01-24T15:18:36;3.80;89.80
12901;DHT22;6518;50.930;5.344;2023-01-24T15:21:04;3.80;89.80
12901;DHT22;6518;50.930;5.344;2023-01-24T15:23:31;3.80;90.00
12901;DHT22;6518;50.930;5.344;2023-01-24T15:26:30;3.80;90.00
12901;DHT22;6518;50.930;5.344;2023-01-24T15:32:29;3.80;90.20
12901;DHT22;6518;50.930;5.344;2023-01-24T15:38:19;3.80;90.00
12901;DHT22;6518;50.930;5.344;2023-01-24T15:40:50;3.80;89.60
12901;DHT22;6518;50.930;5.344;2023-01-24T15:43:21;3.80;90.00
12901;DHT22;6518;50.930;5.344;2023-01-24T15:46:07;3.80;90.00
12901;DHT22;6518;50.930;5.344;2023-01-24T15:48:58;3.70;89.80
12901;DHT22;6518;50.930;5.344;2023-01-24T15:51:32;3.70;89.80
12901;DHT22;6518;50.930;5.344;2023-01-24T15:53:59;3.70;90.00
12901;DHT22;6518;50.930;5.344;2023-01-24T15:56:27;3.70;89.80
12901;DHT22;6518;50.930;5.344;2023-01-24T15:58:56;3.60;89.70
12901;DHT22;6518;50.930;5.344;2023-01-24T16:01:27;3.60;90.00
12901;DHT22;6518;50.930;5.344;2023-01-24T16:04:09;3.60;90.20
12901;DHT22;6518;50.930;5.344;2023-01-24T16:06:37;3.60;90.20
12901;DHT22;6518;50.930;5.344;2023-01-24T16:09:04;3.60;90.30
12901;DHT22;6518;50.930;5.344;2023-01-24T16:11:31;3.60;90.30
12901;DHT22;6518;50.930;5.344;2023-01-24T16:14:00;3.60;90.40
12901;DHT22;6518;50.930;5.344;2023-01-24T16:16:26;3.60;90.40
12901;DHT22;6518;50.930;5.344;2023-01-24T16:18:54;3.60;90.20
12901;DHT22;6518;50.930;5.344;2023-01-24T16:21:20;3.60;90.30
12901;DHT22;6518;50.930;5.344;2023-01-24T16:23:47;3.60;90.10
12901;DHT22;6518;50.930;5.344;2023-01-24T16:26:20;3.50;90.20
12901;DHT22;6518;50.930;5.344;2023-01-24T16:28:47;3.50;90.40
12901;DHT22;6518;50.930;5.344;2023-01-24T16:31:16;4.50;90.60
12901;DHT22;6518;50.930;5.344;2023-01-24T16:33:43;3.50;90.20
12901;DHT22;6518;50.930;5.344;2023-01-24T16:36:11;3.50;90.30
12901;DHT22;6518;50.930;5.344;2023-01-24T16:38:39;3.50;90.10
12901;DHT22;6518;50.930;5.344;2023-01-24T16:41:07;3.40;90.20
12901;DHT22;6518;50.930;5.344;2023-01-24T16:43:34;3.40;90.30
12901;DHT22;6518;50.930;5.344;2023-01-24T16:46:00;3.40;90.30
12901;DHT22;6518;50.930;5.344;2023-01-24T16:48:30;3.40;90.30